Time,TemperatureF,DewpointF,PressureIn,WindDirection,WindDirectionDegrees,WindSpeedMPH,WindSpeedGustMPH,Humidity,HourlyPrecipIn,Conditions,Clouds,dailyrainin,SoftwareType,DateUTC
2013-02-24 00:10:00,70.9,70.0,30.00,SSE,164,0.0,-999.0,97,-99.99,,,0.00,weatherlink.com 1.10,2013-02-24 05:10:00,
2013-02-24 00:25:00,70.9,70.0,30.00,SSE,164,0.0,-999.0,97,-99.99,,,0.00,weatherlink.com 1.10,2013-02-24 05:25:00,
2013-02-24 00:40:00,70.9,70.0,30.00,SSE,164,0.0,-999.0,97,-99.99,,,0.00,weatherlink.com 1.10,2013-02-24 05:40:00,
2013-02-24 00:55:00,70.9,70.0,30.00,SSE,164,0.0,-999.0,97,-99.99,,,0.00,weatherlink.com 1.10,2013-02-24 05:55:00,
2013-02-24 01:10:00,70.9,70.0,30.00,SSE,164,0.0,-999.0,97,-99.99,,,0.00,weatherlink.com 1.10,2013-02-24 06:10:00,
2013-02-24 01:25:00,71.0,70.0,29.99,SSE,164,0.0,-999.0,97,-99.99,,,0.00,weatherlink.com 1.10,2013-02-24 06:25:00,
2013-02-24 01:40:00,71.0,70.0,29.98,SSE,164,0.0,-999.0,97,-99.99,,,0.00,weatherlink.com 1.10,2013-02-24 06:40:00,
2013-02-24 01:55:00,71.1,70.0,29.98,SSE,164,0.0,-999.0,97,-99.99,,,0.00,weatherlink.com 1.10,2013-02-24 06:55:00,
2013-02-24 02:10:00,71.0,70.0,29.98,SSE,164,0.0,-999.0,97,-99.99,,,0.00,weatherlink.com 1.10,2013-02-24 07:10:00,
2013-02-24 02:25:00,70.9,70.0,29.97,SSE,164,0.0,-999.0,97,-99.99,,,0.00,weatherlink.com 1.10,2013-02-24 07:25:00,
2013-02-24 02:40:00,70.8,70.0,29.96,SSE,164,0.0,-999.0,97,-99.99,,,0.00,weatherlink.com 1.10,2013-02-24 07:40:00,
2013-02-24 02:55:00,70.7,70.0,29.96,SSE,164,0.0,-999.0,97,-99.99,,,0.00,weatherlink.com 1.10,2013-02-24 07:55:00,
2013-02-24 03:10:00,70.7,70.0,29.96,SSE,164,0.0,-999.0,97,-99.99,,,0.00,weatherlink.com 1.10,2013-02-24 08:10:00,
2013-02-24 03:25:00,70.8,70.0,29.96,SSE,164,0.0,-999.0,97,-99.99,,,0.00,weatherlink.com 1.10,2013-02-24 08:25:00,
2013-02-24 03:40:00,70.9,70.0,29.95,SSE,165,0.0,-999.0,97,-99.99,,,0.00,weatherlink.com 1.10,2013-02-24 08:40:00,
2013-02-24 03:55:00,70.7,70.0,29.95,SSE,164,0.0,-999.0,97,-99.99,,,0.00,weatherlink.com 1.10,2013-02-24 08:55:00,
2013-02-24 04:10:00,70.4,70.0,29.94,SSE,164,1.0,-999.0,97,-99.99,,,0.00,weatherlink.com 1.10,2013-02-24 09:10:00,
2013-02-24 04:25:00,70.3,69.0,29.95,SSE,164,0.0,-999.0,97,-99.99,,,0.00,weatherlink.com 1.10,2013-02-24 09:25:00,
2013-02-24 04:40:00,70.2,69.0,29.96,SSE,164,0.0,-999.0,97,-99.99,,,0.00,weatherlink.com 1.10,2013-02-24 09:40:00,
2013-02-24 04:55:00,70.0,69.0,29.96,SSE,164,0.0,-999.0,97,-99.99,,,0.00,weatherlink.com 1.10,2013-02-24 09:55:00,
2013-02-24 05:10:00,69.8,69.0,29.96,SSE,164,0.0,-999.0,97,-99.99,,,0.00,weatherlink.com 1.10,2013-02-24 10:10:00,
2013-02-24 05:25:00,69.5,69.0,29.96,SSE,164,0.0,-999.0,97,-99.99,,,0.00,weatherlink.com 1.10,2013-02-24 10:25:00,
2013-02-24 05:40:00,69.8,69.0,29.96,SSE,164,0.0,-999.0,97,-99.99,,,0.00,weatherlink.com 1.10,2013-02-24 10:40:00,
2013-02-24 05:55:00,70.3,69.0,29.97,SSE,164,0.0,-999.0,97,-99.99,,,0.00,weatherlink.com 1.10,2013-02-24 10:55:00,
2013-02-24 06:10:00,70.6,70.0,29.97,SSE,164,0.0,-999.0,98,-99.99,,,0.00,weatherlink.com 1.10,2013-02-24 11:10:00,
2013-02-24 06:25:00,70.5,70.0,29.96,SSE,164,0.0,-999.0,98,-99.99,,,0.00,weatherlink.com 1.10,2013-02-24 11:25:00,
2013-02-24 06:40:00,70.3,69.0,29.96,SSE,164,0.0,-999.0,97,-99.99,,,0.00,weatherlink.com 1.10,2013-02-24 11:40:00,
2013-02-24 06:55:00,70.0,69.0,29.97,SSE,154,0.0,-999.0,97,-99.99,,,0.00,weatherlink.com 1.10,2013-02-24 11:55:00,
2013-02-24 07:10:00,69.8,69.0,29.97,SSE,154,0.0,-999.0,97,-99.99,,,0.00,weatherlink.com 1.10,2013-02-24 12:10:00,
2013-02-24 07:25:00,69.4,69.0,29.98,WSW,246,0.0,-999.0,97,-99.99,,,0.00,weatherlink.com 1.10,2013-02-24 12:25:00,
2013-02-24 07:40:00,69.7,69.0,29.99,South,172,0.0,-999.0,97,-99.99,,,0.00,weatherlink.com 1.10,2013-02-24 12:40:00,
2013-02-24 07:55:00,70.3,69.0,29.99,South,172,0.0,-999.0,97,-99.99,,,0.00,weatherlink.com 1.10,2013-02-24 12:55:00,
2013-02-24 08:11:00,71.2,71.0,30.00,South,172,0.0,-999.0,98,-99.99,,,0.00,weatherlink.com 1.10,2013-02-24 13:11:00,
2013-02-24 08:26:00,71.7,71.0,30.00,South,182,0.0,-999.0,98,-99.99,,,0.00,weatherlink.com 1.10,2013-02-24 13:26:00,
2013-02-24 08:41:00,72.6,72.0,30.00,South,171,0.0,-999.0,98,-99.99,,,0.00,weatherlink.com 1.10,2013-02-24 13:41:00,
2013-02-24 08:56:00,73.5,73.0,30.00,South,176,0.0,-999.0,98,-99.99,,,0.00,weatherlink.com 1.10,2013-02-24 13:56:00,
2013-02-24 09:11:00,74.4,74.0,30.01,ESE,121,0.0,-999.0,97,-99.99,,,0.00,weatherlink.com 1.10,2013-02-24 14:11:00,
2013-02-24 09:26:00,76.2,74.0,30.01,SSE,147,0.0,-999.0,93,-99.99,,,0.00,weatherlink.com 1.10,2013-02-24 14:26:00,
2013-02-24 09:41:00,78.4,75.0,30.02,SSE,168,0.0,-999.0,88,-99.99,,,0.00,weatherlink.com 1.10,2013-02-24 14:41:00,
2013-02-24 09:56:00,80.0,74.0,30.01,South,176,0.0,-999.0,82,-99.99,,,0.00,weatherlink.com 1.10,2013-02-24 14:56:00,
2013-02-24 10:11:00,81.4,75.0,30.02,SSE,159,0.0,-999.0,81,-99.99,,,0.00,weatherlink.com 1.10,2013-02-24 15:11:00,
2013-02-24 10:26:00,82.8,74.0,30.01,South,180,0.0,-999.0,75,-99.99,,,0.00,weatherlink.com 1.10,2013-02-24 15:26:00,
2013-02-24 10:41:00,83.9,74.0,30.01,SSW,192,3.0,-999.0,72,-99.99,,,0.00,weatherlink.com 1.10,2013-02-24 15:41:00,
2013-02-24 10:56:00,84.1,74.0,30.01,WNW,286,0.0,-999.0,72,-99.99,,,0.00,weatherlink.com 1.10,2013-02-24 15:56:00,
2013-02-24 11:11:00,84.2,73.0,30.00,West,277,0.0,-999.0,70,-99.99,,,0.00,weatherlink.com 1.10,2013-02-24 16:11:00,
2013-02-24 11:26:00,84.2,74.0,30.00,West,276,0.0,-999.0,71,-99.99,,,0.00,weatherlink.com 1.10,2013-02-24 16:26:00,
2013-02-24 11:41:00,84.7,75.0,30.00,West,274,0.0,-999.0,72,-99.99,,,0.00,weatherlink.com 1.10,2013-02-24 16:41:00,
2013-02-24 11:56:00,84.7,73.0,30.00,West,280,5.0,-999.0,69,-99.99,,,0.00,weatherlink.com 1.10,2013-02-24 16:56:00,
2013-02-24 12:11:00,84.4,73.0,30.00,West,281,4.0,-999.0,68,-99.99,,,0.00,weatherlink.com 1.10,2013-02-24 17:11:00,
2013-02-24 12:26:00,84.7,74.0,29.99,SSW,202,1.0,-999.0,70,-99.99,,,0.00,weatherlink.com 1.10,2013-02-24 17:26:00,
2013-02-24 12:41:00,84.9,73.0,29.98,WSW,255,0.0,-999.0,68,-99.99,,,0.00,weatherlink.com 1.10,2013-02-24 17:41:00,
2013-02-24 12:56:00,86.1,74.0,29.98,SSW,210,0.0,-999.0,68,-99.99,,,0.00,weatherlink.com 1.10,2013-02-24 17:56:00,
2013-02-24 13:11:00,85.7,74.0,29.98,West,277,0.0,-999.0,68,-99.99,,,0.00,weatherlink.com 1.10,2013-02-24 18:11:00,
2013-02-24 13:26:00,86.0,73.0,29.96,NW,304,0.0,-999.0,66,-99.99,,,0.00,weatherlink.com 1.10,2013-02-24 18:26:00,
2013-02-24 13:41:00,86.7,74.0,29.96,West,273,0.0,-999.0,65,-99.99,,,0.00,weatherlink.com 1.10,2013-02-24 18:41:00,
2013-02-24 13:56:00,85.1,73.0,29.96,West,273,4.0,-999.0,68,-99.99,,,0.00,weatherlink.com 1.10,2013-02-24 18:56:00,
2013-02-24 14:11:00,85.1,74.0,29.96,West,277,0.0,-999.0,69,-99.99,,,0.00,weatherlink.com 1.10,2013-02-24 19:11:00,
2013-02-24 14:26:00,85.4,74.0,29.95,West,262,0.0,-999.0,68,-99.99,,,0.00,weatherlink.com 1.10,2013-02-24 19:26:00,
2013-02-24 14:41:00,86.0,73.0,29.95,South,184,0.0,-999.0,66,-99.99,,,0.00,weatherlink.com 1.10,2013-02-24 19:41:00,
2013-02-24 14:56:00,86.6,74.0,29.94,West,273,7.0,-999.0,66,-99.99,,,0.00,weatherlink.com 1.10,2013-02-24 19:56:00,
2013-02-24 15:11:00,85.1,73.0,29.95,NW,304,0.0,-999.0,67,-99.99,,,0.00,weatherlink.com 1.10,2013-02-24 20:11:00,
2013-02-24 15:26:00,82.3,72.0,29.95,West,273,0.0,-999.0,72,-99.99,,,0.00,weatherlink.com 1.10,2013-02-24 20:26:00,
2013-02-24 15:41:00,81.2,72.0,29.95,SW,223,0.0,-999.0,74,-99.99,,,0.00,weatherlink.com 1.10,2013-02-24 20:41:00,
2013-02-24 15:56:00,80.8,72.0,29.94,South,171,0.0,-999.0,75,-99.99,,,0.00,weatherlink.com 1.10,2013-02-24 20:56:00,
2013-02-24 16:12:00,80.5,73.0,29.95,WNW,296,5.0,-999.0,79,-99.99,,,0.00,weatherlink.com 1.10,2013-02-24 21:12:00,
2013-02-24 16:27:00,79.6,73.0,29.95,West,260,4.0,-999.0,81,-99.99,,,0.00,weatherlink.com 1.10,2013-02-24 21:27:00,
2013-02-24 16:42:00,78.9,73.0,29.95,West,269,3.0,-999.0,82,-99.99,,,0.00,weatherlink.com 1.10,2013-02-24 21:42:00,
2013-02-24 16:57:00,78.4,73.0,29.96,WNW,298,5.0,-999.0,83,-99.99,,,0.00,weatherlink.com 1.10,2013-02-24 21:57:00,
2013-02-24 17:12:00,76.5,72.0,29.95,West,272,0.0,-999.0,86,-99.99,,,0.00,weatherlink.com 1.10,2013-02-24 22:12:00,
2013-02-24 17:27:00,75.2,72.0,29.96,WNW,286,0.0,-999.0,89,-99.99,,,0.00,weatherlink.com 1.10,2013-02-24 22:27:00,
2013-02-24 17:42:00,74.3,71.0,29.96,West,271,0.0,-999.0,90,-99.99,,,0.00,weatherlink.com 1.10,2013-02-24 22:42:00,
2013-02-24 17:57:00,73.6,71.0,29.96,West,271,2.0,-999.0,91,-99.99,,,0.00,weatherlink.com 1.10,2013-02-24 22:57:00,
2013-02-24 18:12:00,73.2,71.0,29.96,West,271,0.0,-999.0,92,-99.99,,,0.00,weatherlink.com 1.10,2013-02-24 23:12:00,
2013-02-24 18:27:00,72.8,71.0,29.96,West,272,0.0,-999.0,93,-99.99,,,0.00,weatherlink.com 1.10,2013-02-24 23:27:00,
2013-02-24 18:42:00,72.4,70.0,29.95,West,272,0.0,-999.0,93,-99.99,,,0.00,weatherlink.com 1.10,2013-02-24 23:42:00,
2013-02-24 18:57:00,72.1,70.0,29.96,West,272,0.0,-999.0,94,-99.99,,,0.00,weatherlink.com 1.10,2013-02-24 23:57:00,
2013-02-24 19:12:00,71.8,70.0,29.95,West,272,0.0,-999.0,94,-99.99,,,0.00,weatherlink.com 1.10,2013-02-25 00:12:00,
2013-02-24 19:27:00,71.5,70.0,29.96,West,272,0.0,-999.0,94,-99.99,,,0.00,weatherlink.com 1.10,2013-02-25 00:27:00,
2013-02-24 19:42:00,71.0,70.0,29.95,West,272,0.0,-999.0,95,-99.99,,,0.00,weatherlink.com 1.10,2013-02-25 00:42:00,
2013-02-24 19:57:00,71.0,70.0,29.97,West,272,0.0,-999.0,95,-99.99,,,0.00,weatherlink.com 1.10,2013-02-25 00:57:00,
2013-02-24 20:12:00,70.8,69.0,29.96,West,272,0.0,-999.0,95,-99.99,,,0.00,weatherlink.com 1.10,2013-02-25 01:12:00,
2013-02-24 20:27:00,70.7,69.0,29.96,West,272,0.0,-999.0,95,-99.99,,,0.00,weatherlink.com 1.10,2013-02-25 01:27:00,
2013-02-24 20:42:00,70.8,70.0,29.97,West,272,0.0,-999.0,96,-99.99,,,0.00,weatherlink.com 1.10,2013-02-25 01:42:00,
2013-02-24 20:57:00,70.5,69.0,29.97,West,272,0.0,-999.0,96,-99.99,,,0.00,weatherlink.com 1.10,2013-02-25 01:57:00,
2013-02-24 21:12:00,70.5,69.0,29.98,West,272,0.0,-999.0,96,-99.99,,,0.00,weatherlink.com 1.10,2013-02-25 02:12:00,
2013-02-24 21:27:00,70.3,69.0,29.98,West,272,0.0,-999.0,96,-99.99,,,0.00,weatherlink.com 1.10,2013-02-25 02:27:00,
2013-02-24 21:42:00,70.1,69.0,29.97,West,272,0.0,-999.0,96,-99.99,,,0.00,weatherlink.com 1.10,2013-02-25 02:42:00,
2013-02-24 21:57:00,69.8,69.0,29.98,West,272,0.0,-999.0,96,-99.99,,,0.00,weatherlink.com 1.10,2013-02-25 02:57:00,
2013-02-24 22:12:00,69.6,69.0,29.97,West,272,0.0,-999.0,96,-99.99,,,0.00,weatherlink.com 1.10,2013-02-25 03:12:00,
2013-02-24 22:27:00,69.7,69.0,29.97,West,272,0.0,-999.0,97,-99.99,,,0.00,weatherlink.com 1.10,2013-02-25 03:27:00,
2013-02-24 22:42:00,69.7,69.0,29.96,West,272,0.0,-999.0,97,-99.99,,,0.00,weatherlink.com 1.10,2013-02-25 03:42:00,
2013-02-24 22:57:00,69.4,69.0,29.96,West,272,0.0,-999.0,97,-99.99,,,0.00,weatherlink.com 1.10,2013-02-25 03:57:00,
2013-02-24 23:12:00,69.0,68.0,29.95,West,272,0.0,-999.0,97,-99.99,,,0.00,weatherlink.com 1.10,2013-02-25 04:12:00,
2013-02-24 23:27:00,69.0,68.0,29.94,West,272,0.0,-999.0,97,-99.99,,,0.00,weatherlink.com 1.10,2013-02-25 04:27:00,
2013-02-24 23:42:00,68.9,68.0,29.93,West,272,0.0,-999.0,97,-99.99,,,0.00,weatherlink.com 1.10,2013-02-25 04:42:00,
2013-02-24 23:57:00,68.7,68.0,29.93,West,272,0.0,-999.0,97,-99.99,,,0.00,weatherlink.com 1.10,2013-02-25 04:57:00,